createdAt,value
2022-10-21T00:02:02.802Z,6.25
2022-10-21T00:04:30.478Z,5.88
2022-10-21T00:06:58.024Z,6.20
2022-10-21T00:09:25.568Z,5.90
2022-10-21T00:11:53.098Z,6.00
2022-10-21T00:14:22.058Z,5.95
2022-10-21T00:16:49.611Z,5.32
2022-10-21T00:19:17.261Z,5.95
2022-10-21T00:21:44.821Z,5.75
2022-10-21T00:24:12.412Z,6.05
2022-10-21T00:26:39.947Z,5.57
2022-10-21T00:29:07.557Z,5.30
2022-10-21T00:31:36.527Z,5.32
2022-10-21T00:34:04.095Z,5.78
2022-10-21T00:36:31.956Z,5.72
2022-10-21T00:38:59.458Z,5.35
2022-10-21T00:41:26.997Z,5.60
2022-10-21T00:44:01.021Z,5.60
2022-10-21T00:46:40.483Z,4.85
2022-10-21T00:49:13.903Z,5.38
2022-10-21T00:54:10.572Z,5.47
2022-10-21T00:56:40.604Z,5.82
2022-10-21T00:59:08.979Z,5.63
2022-10-21T01:01:37.897Z,5.95
2022-10-21T01:04:06.034Z,6.05
2022-10-21T01:06:34.940Z,6.28
2022-10-21T01:09:03.199Z,5.80
2022-10-21T01:11:37.210Z,6.75
2022-10-21T01:14:19.976Z,7.30
2022-10-21T01:16:56.715Z,6.75
2022-10-21T01:19:50.417Z,6.25
2022-10-21T01:22:30.988Z,6.03
2022-10-21T01:25:36.706Z,6.00
2022-10-21T01:28:14.592Z,5.65
2022-10-21T01:30:47.135Z,5.53
2022-10-21T01:33:40.557Z,6.70
2022-10-21T01:36:19.521Z,5.90
2022-10-21T01:38:59.815Z,5.45
2022-10-21T01:41:31.504Z,5.82
2022-10-21T01:44:05.447Z,6.30
2022-10-21T01:46:38.404Z,6.03
2022-10-21T01:49:12.099Z,5.70
2022-10-21T01:51:40.897Z,6.00
2022-10-21T01:54:16.900Z,5.75
2022-10-21T01:56:46.629Z,5.95
2022-10-21T01:59:15.436Z,5.32
2022-10-21T02:01:47.092Z,5.35
2022-10-21T02:04:19.226Z,5.47
2022-10-21T02:06:46.965Z,6.03
2022-10-21T02:09:14.483Z,5.85
2022-10-21T02:11:44.874Z,7.47
2022-10-21T02:14:17.625Z,6.10
2022-10-21T02:16:47.629Z,5.88
2022-10-21T02:19:17.798Z,5.65
2022-10-21T02:21:47.740Z,5.60
2022-10-21T02:24:21.985Z,5.55
2022-10-21T02:26:49.617Z,5.57
2022-10-21T02:29:23.381Z,5.43
2022-10-21T02:32:03.475Z,5.70
2022-10-21T02:34:40.075Z,5.35
2022-10-21T02:37:14.529Z,5.47
2022-10-21T02:39:47.163Z,5.75
2022-10-21T02:42:26.839Z,5.13
2022-10-21T02:44:54.642Z,5.82
2022-10-21T02:47:26.419Z,5.18
2022-10-21T02:49:53.964Z,5.30
2022-10-21T02:52:21.516Z,4.72
2022-10-21T02:54:49.032Z,5.63
2022-10-21T02:57:16.605Z,5.03
2022-10-21T02:59:44.139Z,5.20
2022-10-21T03:02:11.640Z,4.50
2022-10-21T03:04:40.536Z,5.03
2022-10-21T03:07:08.069Z,5.88
2022-10-21T03:09:35.574Z,5.82
2022-10-21T03:12:03.133Z,5.00
2022-10-21T03:14:30.670Z,4.95
2022-10-21T03:16:58.177Z,5.15
2022-10-21T03:19:25.722Z,4.90
2022-10-21T03:21:54.604Z,4.40
2022-10-21T03:24:28.369Z,4.55
2022-10-21T03:26:56.804Z,5.70
2022-10-21T03:29:24.577Z,4.45
2022-10-21T03:31:52.864Z,4.22
2022-10-21T03:34:20.382Z,4.28
2022-10-21T03:36:47.916Z,4.45
2022-10-21T03:39:16.851Z,3.42
2022-10-21T03:41:44.440Z,4.07
2022-10-21T03:44:11.926Z,4.93
2022-10-21T03:46:39.448Z,4.18
2022-10-21T03:49:11.965Z,4.63
2022-10-21T03:51:43.197Z,4.43
2022-10-21T03:54:10.812Z,4.10
2022-10-21T03:56:39.651Z,4.25
2022-10-21T03:59:07.195Z,3.90
2022-10-21T04:01:34.722Z,3.78
2022-10-21T04:04:02.450Z,3.90
2022-10-21T04:06:29.948Z,4.25
2022-10-21T04:08:57.515Z,4.20
2022-10-21T04:11:25.283Z,4.57
2022-10-21T04:13:54.120Z,8.35
2022-10-21T04:16:22.954Z,7.07
2022-10-21T04:18:50.533Z,6.88
2022-10-21T04:21:18.194Z,6.30
2022-10-21T04:23:45.705Z,5.50
2022-10-21T04:26:13.587Z,4.18
2022-10-21T04:28:41.116Z,3.83
2022-10-21T04:31:10.027Z,3.88
2022-10-21T04:33:37.568Z,4.15
2022-10-21T04:36:05.662Z,4.28
2022-10-21T04:38:33.185Z,4.22
2022-10-21T04:41:02.576Z,3.70
2022-10-21T04:43:30.403Z,3.45
2022-10-21T04:45:57.924Z,5.10
2022-10-21T04:48:26.766Z,4.50
2022-10-21T04:50:55.000Z,4.70
2022-10-21T04:53:23.145Z,4.68
2022-10-21T04:55:53.036Z,6.28
2022-10-21T04:58:22.043Z,6.43
2022-10-21T05:00:50.421Z,6.53
2022-10-21T05:03:18.257Z,6.00
2022-10-21T05:05:50.044Z,6.45
2022-10-21T05:08:17.580Z,5.32
2022-10-21T05:10:45.109Z,6.15
2022-10-21T05:13:12.830Z,5.50
2022-10-21T05:15:40.358Z,5.15
2022-10-21T05:18:07.964Z,5.78
2022-10-21T05:20:35.454Z,4.03
2022-10-21T05:23:04.385Z,5.07
2022-10-21T05:25:34.285Z,4.80
2022-10-21T05:28:02.159Z,15.20
2022-10-21T05:30:29.757Z,8.20
2022-10-21T05:32:57.312Z,6.60
2022-10-21T05:35:24.896Z,6.60
2022-10-21T05:37:52.384Z,6.60
2022-10-21T05:40:21.248Z,4.78
2022-10-21T05:42:48.791Z,4.82
2022-10-21T05:45:18.549Z,4.53
2022-10-21T05:47:46.036Z,4.72
2022-10-21T05:50:14.504Z,5.30
2022-10-21T05:52:42.194Z,9.57
2022-10-21T05:55:10.813Z,5.97
2022-10-21T05:57:40.018Z,13.02
2022-10-21T06:00:08.973Z,16.98
2022-10-21T06:02:37.473Z,8.80
2022-10-21T06:05:05.703Z,6.88
2022-10-21T06:07:33.218Z,6.50
2022-10-21T06:10:01.112Z,6.82
2022-10-21T06:12:28.699Z,9.52
2022-10-21T06:14:57.583Z,8.70
2022-10-21T06:17:25.079Z,9.00
2022-10-21T06:19:52.651Z,7.72
2022-10-21T06:22:20.382Z,5.07
2022-10-21T06:24:47.985Z,3.88
2022-10-21T06:27:15.655Z,3.83
2022-10-21T06:29:43.227Z,4.93
2022-10-21T06:32:12.138Z,5.32
2022-10-21T06:34:39.693Z,5.65
2022-10-21T06:37:07.192Z,4.80
2022-10-21T06:39:34.708Z,4.43
2022-10-21T06:42:02.197Z,4.57
2022-10-21T06:44:41.901Z,6.00
2022-10-21T06:47:09.611Z,4.60
2022-10-21T06:49:38.496Z,3.83
2022-10-21T06:52:06.076Z,3.65
2022-10-21T06:54:33.595Z,4.25
2022-10-21T06:57:01.133Z,3.50
2022-10-21T06:59:29.556Z,3.03
2022-10-21T07:02:01.122Z,4.00
2022-10-21T07:04:29.284Z,4.32
2022-10-21T07:06:58.587Z,4.50
2022-10-21T07:09:26.150Z,4.97
2022-10-21T07:11:53.811Z,4.30
2022-10-21T07:14:21.354Z,4.15
2022-10-21T07:16:49.171Z,5.10
2022-10-21T07:19:16.651Z,3.95
2022-10-21T07:21:44.466Z,4.50
2022-10-21T07:24:16.351Z,4.35
2022-10-21T07:26:45.125Z,5.38
2022-10-21T07:29:15.279Z,4.30
2022-10-21T07:31:42.814Z,4.65
2022-10-21T07:34:12.642Z,4.07
2022-10-21T07:36:42.230Z,4.10
2022-10-21T07:39:14.412Z,3.75
2022-10-21T07:41:44.324Z,3.90
2022-10-21T07:44:12.822Z,5.10
2022-10-21T07:46:41.945Z,4.35
2022-10-21T07:49:10.796Z,4.40
2022-10-21T07:51:39.384Z,5.10
2022-10-21T07:54:07.818Z,4.53
2022-10-21T07:56:39.461Z,5.05
2022-10-21T07:59:12.485Z,5.28
2022-10-21T08:01:44.201Z,4.10
2022-10-21T08:04:12.691Z,4.75
2022-10-21T08:06:40.858Z,4.25
2022-10-21T08:09:08.791Z,3.75
2022-10-21T08:11:38.062Z,4.03
2022-10-21T08:14:07.587Z,3.90
2022-10-21T08:16:35.334Z,4.43
2022-10-21T08:19:03.832Z,4.03
2022-10-21T08:21:31.911Z,3.78
2022-10-21T08:23:59.654Z,3.88
2022-10-21T08:26:27.196Z,4.28
2022-10-21T08:28:56.126Z,3.40
2022-10-21T08:31:24.156Z,3.65
2022-10-21T08:33:51.852Z,3.60
2022-10-21T08:36:21.397Z,2.83
2022-10-21T08:38:49.672Z,3.08
2022-10-21T08:41:33.711Z,4.45
2022-10-21T08:44:06.497Z,4.30
2022-10-21T08:46:38.687Z,4.03
2022-10-21T08:49:14.481Z,4.28
2022-10-21T08:51:47.258Z,4.40
2022-10-21T08:54:21.922Z,6.32
2022-10-21T08:56:51.371Z,5.47
2022-10-21T08:59:23.526Z,5.18
2022-10-21T09:02:00.048Z,5.35
2022-10-21T09:04:38.660Z,4.22
2022-10-21T09:07:19.334Z,3.33
2022-10-21T09:09:53.249Z,3.75
2022-10-21T09:12:30.059Z,3.80
2022-10-21T09:15:16.256Z,3.22
2022-10-21T09:18:04.714Z,3.35
2022-10-21T09:20:45.390Z,3.90
2022-10-21T09:23:40.277Z,3.08
2022-10-21T09:26:17.081Z,2.90
2022-10-21T09:28:47.428Z,4.40
2022-10-21T09:31:19.389Z,4.20
2022-10-21T09:33:50.962Z,2.53
2022-10-21T09:36:23.032Z,3.35
2022-10-21T09:38:57.517Z,2.42
2022-10-21T09:41:29.534Z,1.75
2022-10-21T09:43:57.299Z,1.73
2022-10-21T09:46:26.315Z,1.92
2022-10-21T09:51:45.295Z,2.50
2022-10-21T09:54:16.049Z,1.75
2022-10-21T09:56:49.555Z,2.20
2022-10-21T09:59:19.422Z,1.52
2022-10-21T10:01:49.354Z,1.55
2022-10-21T10:04:23.989Z,1.20
2022-10-21T10:06:51.604Z,1.35
2022-10-21T10:09:27.219Z,1.10
2022-10-21T10:11:58.347Z,0.90
2022-10-21T10:14:33.031Z,1.15
2022-10-21T10:17:22.068Z,0.65
2022-10-21T10:20:12.907Z,0.75
2022-10-21T10:22:43.065Z,0.50
2022-10-21T10:25:21.546Z,0.75
2022-10-21T10:27:50.856Z,0.40
2022-10-21T10:30:19.472Z,0.52
2022-10-21T10:32:50.204Z,1.00
2022-10-21T10:35:26.045Z,0.60
2022-10-21T10:37:54.671Z,0.80
2022-10-21T10:40:25.692Z,1.63
2022-10-21T10:43:01.278Z,0.60
2022-10-21T10:45:29.758Z,0.40
2022-10-21T10:48:03.197Z,0.35
2022-10-21T10:50:46.747Z,0.50
2022-10-21T10:53:23.288Z,0.40
2022-10-21T10:55:56.025Z,0.82
2022-10-21T10:58:28.019Z,0.43
2022-10-21T11:00:59.599Z,0.60
2022-10-21T11:03:41.128Z,0.50
2022-10-21T11:06:15.372Z,0.85
2022-10-21T11:08:47.297Z,2.05
2022-10-21T11:11:21.981Z,2.42
2022-10-21T11:13:49.735Z,0.80
2022-10-21T11:16:59.690Z,2.28
2022-10-21T11:19:40.676Z,4.30
2022-10-21T11:22:14.886Z,1.80
2022-10-21T11:24:55.150Z,0.77
2022-10-21T11:27:38.244Z,1.75
2022-10-21T11:30:13.595Z,0.75
2022-10-21T11:33:02.978Z,1.05
2022-10-21T11:35:42.869Z,0.70
2022-10-21T11:38:30.457Z,0.52
2022-10-21T11:41:03.525Z,0.80
2022-10-21T11:43:41.977Z,0.40
2022-10-21T11:46:17.433Z,0.40
2022-10-21T11:49:00.367Z,0.90
2022-10-21T11:51:40.977Z,0.50
2022-10-21T11:54:56.580Z,0.40
2022-10-21T11:57:36.986Z,0.45
2022-10-21T12:00:16.453Z,0.52
2022-10-21T12:02:46.339Z,0.93
2022-10-21T12:05:24.314Z,0.45
2022-10-21T12:08:08.597Z,0.75
2022-10-21T12:10:41.226Z,0.50
2022-10-21T12:13:17.581Z,0.70
2022-10-21T12:15:49.297Z,0.60
2022-10-21T12:18:19.801Z,0.40
2022-10-21T12:20:49.948Z,0.55
2022-10-21T12:23:22.021Z,0.80
2022-10-21T12:26:01.167Z,0.80
2022-10-21T12:28:35.220Z,0.90
2022-10-21T12:31:15.236Z,1.17
2022-10-21T12:33:45.542Z,1.35
2022-10-21T12:36:18.575Z,0.60
2022-10-21T12:38:50.179Z,0.70
2022-10-21T12:41:34.424Z,0.70
2022-10-21T12:44:18.645Z,0.52
2022-10-21T12:46:49.182Z,0.30
2022-10-21T12:49:23.585Z,0.82
2022-10-21T12:51:55.261Z,0.68
2022-10-21T12:54:30.327Z,0.85
2022-10-21T12:57:04.398Z,0.50
2022-10-21T12:59:35.083Z,0.50
2022-10-21T13:02:23.025Z,0.47
2022-10-21T13:04:54.023Z,0.30
2022-10-21T13:07:33.311Z,0.40
2022-10-21T13:10:26.515Z,0.73
2022-10-21T13:13:29.295Z,0.60
2022-10-21T13:15:57.027Z,0.40
2022-10-21T13:18:53.689Z,0.60
2022-10-21T13:21:36.124Z,0.50
2022-10-21T13:24:25.956Z,0.47
2022-10-21T13:26:57.723Z,0.40
2022-10-21T13:29:39.472Z,0.50
2022-10-21T13:32:25.707Z,0.70
2022-10-21T13:35:01.638Z,0.70
2022-10-21T13:37:33.572Z,1.20
2022-10-21T13:40:03.995Z,0.60
2022-10-21T13:42:39.540Z,0.60
2022-10-21T13:45:25.048Z,5.15
2022-10-21T13:48:05.365Z,1.13
2022-10-21T13:50:35.040Z,1.38
2022-10-21T13:53:04.389Z,1.00
2022-10-21T13:55:31.920Z,0.52
2022-10-21T13:58:00.776Z,1.05
2022-10-21T14:00:31.591Z,0.60
2022-10-21T14:03:03.250Z,1.88
2022-10-21T14:05:35.704Z,1.00
2022-10-21T14:08:05.520Z,0.82
2022-10-21T14:10:33.303Z,0.65
2022-10-21T14:13:02.454Z,1.90
2022-10-21T14:15:38.708Z,0.50
2022-10-21T14:18:06.905Z,0.52
2022-10-21T14:20:36.813Z,0.50
2022-10-21T14:23:06.113Z,0.57
2022-10-21T14:25:34.389Z,4.20
2022-10-21T14:28:05.409Z,1.95
2022-10-21T14:30:36.981Z,0.40
2022-10-21T14:33:06.319Z,0.50
2022-10-21T14:35:33.933Z,0.88
2022-10-21T14:38:03.041Z,1.40
2022-10-21T14:40:32.949Z,1.08
2022-10-21T14:43:04.348Z,0.80
2022-10-21T14:45:35.997Z,0.38
2022-10-21T14:48:10.325Z,1.15
2022-10-21T14:50:40.031Z,0.95
2022-10-21T14:53:16.371Z,0.80
2022-10-21T14:55:45.027Z,0.80
2022-10-21T14:58:22.892Z,0.50
2022-10-21T15:00:55.864Z,0.90
2022-10-21T15:03:39.520Z,0.95
2022-10-21T15:08:41.797Z,1.50
2022-10-21T15:11:24.240Z,1.80
2022-10-21T15:14:08.668Z,2.60
2022-10-21T15:16:36.332Z,1.70
2022-10-21T15:19:09.292Z,1.10
2022-10-21T15:21:39.049Z,1.48
2022-10-21T15:24:07.384Z,1.70
2022-10-21T15:26:37.143Z,4.70
2022-10-21T15:29:15.521Z,5.82
2022-10-21T15:31:43.292Z,6.15
2022-10-21T15:34:15.028Z,3.20
2022-10-21T15:36:43.888Z,2.05
2022-10-21T15:39:12.439Z,0.90
2022-10-21T15:41:40.708Z,0.80
2022-10-21T15:44:18.813Z,0.70
2022-10-21T15:46:47.157Z,0.93
2022-10-21T15:49:19.357Z,1.90
2022-10-21T15:51:47.660Z,1.60
2022-10-21T15:54:16.124Z,1.00
2022-10-21T15:56:44.583Z,0.55
2022-10-21T15:59:18.708Z,0.60
2022-10-21T16:01:46.907Z,0.63
2022-10-21T16:04:14.403Z,11.10
2022-10-21T16:06:47.579Z,6.57
2022-10-21T16:09:20.646Z,2.03
2022-10-21T16:14:30.509Z,1.52
2022-10-21T16:16:59.742Z,0.98
2022-10-21T16:19:27.845Z,0.90
2022-10-21T16:21:55.424Z,1.00
2022-10-21T16:24:23.038Z,0.50
2022-10-21T16:26:51.129Z,1.23
2022-10-21T16:29:21.078Z,0.73
2022-10-21T16:31:50.437Z,1.38
2022-10-21T16:34:18.079Z,0.70
2022-10-21T16:36:45.858Z,0.93
2022-10-21T16:39:16.345Z,0.60
2022-10-21T16:41:43.966Z,0.75
2022-10-21T16:44:11.551Z,0.88
2022-10-21T16:46:41.070Z,6.55
2022-10-21T16:49:15.509Z,3.80
2022-10-21T16:51:45.906Z,1.00
2022-10-21T16:54:14.317Z,0.60
2022-10-21T16:56:41.892Z,2.00
2022-10-21T16:59:09.445Z,1.70
2022-10-21T17:01:37.676Z,1.60
2022-10-21T17:04:05.707Z,1.50
2022-10-21T17:06:34.600Z,1.83
2022-10-21T17:09:02.215Z,1.50
2022-10-21T17:11:33.640Z,1.90
2022-10-21T17:14:01.552Z,1.50
2022-10-21T17:16:29.572Z,1.08
2022-10-21T17:18:57.128Z,1.35
2022-10-21T17:21:26.485Z,1.00
2022-10-21T17:23:57.052Z,0.90
2022-10-21T17:26:24.827Z,1.83
2022-10-21T17:28:53.687Z,0.95
2022-10-21T17:31:23.024Z,0.68
2022-10-21T17:33:52.371Z,0.63
2022-10-21T17:36:20.278Z,0.50
2022-10-21T17:38:47.908Z,0.70
2022-10-21T17:41:20.210Z,0.77
2022-10-21T17:43:48.044Z,1.88
2022-10-21T17:46:18.313Z,1.50
2022-10-21T17:48:46.040Z,0.70
2022-10-21T17:51:13.581Z,0.65
2022-10-21T17:53:41.075Z,2.67
2022-10-21T17:56:09.024Z,6.20
2022-10-21T17:58:37.913Z,3.85
2022-10-21T18:01:08.672Z,2.45
2022-10-21T18:03:36.941Z,0.90
2022-10-21T18:06:07.004Z,1.40
2022-10-21T18:08:34.707Z,2.80
2022-10-21T18:11:02.414Z,4.55
2022-10-21T18:13:32.384Z,2.55
2022-10-21T18:16:04.890Z,2.97
2022-10-21T18:18:32.972Z,3.00
2022-10-21T18:21:04.772Z,3.70
2022-10-21T18:23:32.702Z,3.40
2022-10-21T18:26:03.673Z,5.13
2022-10-21T18:28:32.253Z,3.65
2022-10-21T18:30:59.807Z,6.55
2022-10-21T18:33:28.829Z,6.53
2022-10-21T18:35:56.516Z,4.95
2022-10-21T18:38:24.107Z,3.88
2022-10-21T18:40:56.657Z,3.58
2022-10-21T18:43:30.092Z,3.42
2022-10-21T18:45:57.634Z,3.60
2022-10-21T18:48:25.197Z,16.85
2022-10-21T18:50:54.164Z,10.75
2022-10-21T18:53:22.581Z,3.47
2022-10-21T18:55:50.129Z,2.25
2022-10-21T18:58:17.841Z,3.28
2022-10-21T19:00:45.350Z,3.17
2022-10-21T19:03:12.873Z,3.13
2022-10-21T19:05:42.918Z,2.55
2022-10-21T19:08:11.785Z,3.90
2022-10-21T19:10:40.650Z,7.38
2022-10-21T19:13:08.313Z,3.80
2022-10-21T19:15:36.173Z,2.97
2022-10-21T19:18:03.751Z,4.05
2022-10-21T19:20:32.088Z,2.83
2022-10-21T19:22:59.700Z,2.60
2022-10-21T19:25:29.029Z,2.70
2022-10-21T19:27:56.563Z,2.75
2022-10-21T19:30:24.131Z,4.05
2022-10-21T19:32:51.627Z,2.97
2022-10-21T19:35:19.208Z,3.10
2022-10-21T19:37:46.700Z,3.38
2022-10-21T19:40:14.283Z,3.58
2022-10-21T19:42:43.170Z,4.70
2022-10-21T19:45:14.246Z,2.88
2022-10-21T19:47:41.785Z,2.50
2022-10-21T19:52:42.735Z,3.25
2022-10-21T19:55:10.391Z,2.63
2022-10-21T19:57:37.980Z,3.30
2022-10-21T20:00:08.381Z,2.45
2022-10-21T20:02:41.098Z,2.47
2022-10-21T20:05:09.828Z,3.70
2022-10-21T20:07:38.386Z,3.30
2022-10-21T20:10:07.058Z,5.40
2022-10-21T20:12:34.871Z,5.75
2022-10-21T20:15:02.420Z,5.07
2022-10-21T20:20:04.997Z,4.70
2022-10-21T20:22:32.503Z,6.90
2022-10-21T20:25:00.099Z,5.32
2022-10-21T20:27:27.620Z,5.03
2022-10-21T20:29:55.154Z,5.15
2022-10-21T20:32:22.740Z,4.97
2022-10-21T20:34:51.603Z,4.70
2022-10-21T20:37:19.250Z,4.90
2022-10-21T20:39:46.799Z,4.45
2022-10-21T20:42:14.764Z,4.20
2022-10-21T20:44:42.399Z,4.45
2022-10-21T20:47:09.956Z,4.93
2022-10-21T20:49:37.502Z,4.60
2022-10-21T20:52:06.379Z,4.05
2022-10-21T20:54:34.149Z,3.70
2022-10-21T20:57:01.699Z,3.40
2022-10-21T20:59:29.203Z,3.45
2022-10-21T21:01:56.782Z,3.20
2022-10-21T21:04:25.241Z,5.13
2022-10-21T21:06:53.124Z,4.85
2022-10-21T21:10:01.028Z,4.30
2022-10-21T21:12:10.583Z,4.10
2022-10-21T21:14:38.165Z,5.72
2022-10-21T21:17:06.117Z,4.70
2022-10-21T21:19:34.101Z,4.40
2022-10-21T21:22:03.624Z,4.25
2022-10-21T21:24:32.744Z,4.38
2022-10-21T21:27:00.339Z,3.88
2022-10-21T21:29:27.909Z,4.50
2022-10-21T21:31:55.443Z,4.28
2022-10-21T21:34:23.005Z,4.50
2022-10-21T21:36:50.570Z,3.80
2022-10-21T21:39:18.131Z,2.08
2022-10-21T21:41:47.183Z,2.53
2022-10-21T21:44:14.788Z,2.55
2022-10-21T21:46:42.437Z,2.90
2022-10-21T21:49:10.138Z,2.22
2022-10-21T21:51:38.015Z,2.05
2022-10-21T21:54:07.633Z,1.80
2022-10-21T21:56:35.960Z,1.38
2022-10-21T21:59:04.901Z,1.13
2022-10-21T22:01:32.594Z,1.30
2022-10-21T22:04:00.938Z,1.10
2022-10-21T22:06:30.779Z,0.82
2022-10-21T22:08:59.487Z,1.00
2022-10-21T22:11:28.652Z,0.60
2022-10-21T22:13:56.519Z,0.60
2022-10-21T22:16:29.958Z,0.70
2022-10-21T22:21:26.427Z,0.88
2022-10-21T22:23:54.085Z,0.40
2022-10-21T22:26:23.573Z,0.60
2022-10-21T22:28:51.382Z,1.13
2022-10-21T22:31:19.977Z,0.50
2022-10-21T22:33:49.257Z,0.40
2022-10-21T22:36:17.358Z,0.85
2022-10-21T22:38:45.221Z,1.10
2022-10-21T22:41:13.100Z,0.32
2022-10-21T22:43:42.661Z,0.40
2022-10-21T22:46:34.685Z,0.50
2022-10-21T22:49:06.190Z,0.40
2022-10-21T22:51:59.756Z,0.88
2022-10-21T22:54:47.993Z,0.40
2022-10-21T22:57:15.189Z,0.38
2022-10-21T22:59:44.144Z,0.45
2022-10-21T23:02:12.159Z,0.70
2022-10-21T23:04:41.156Z,0.50
2022-10-21T23:07:08.845Z,0.50
2022-10-21T23:09:36.410Z,0.60
2022-10-21T23:12:03.985Z,0.60
2022-10-21T23:14:31.637Z,0.60
2022-10-21T23:16:59.329Z,0.35
2022-10-21T23:19:26.997Z,0.30
2022-10-21T23:21:55.936Z,0.30
2022-10-21T23:24:23.650Z,0.82
2022-10-21T23:26:51.200Z,0.35
2022-10-21T23:29:18.771Z,0.40
2022-10-21T23:31:46.328Z,0.60
2022-10-21T23:34:14.100Z,1.25
2022-10-21T23:36:41.672Z,0.40
2022-10-21T23:39:11.987Z,0.35
2022-10-21T23:41:39.588Z,0.35
2022-10-21T23:44:07.330Z,0.20
2022-10-21T23:46:35.197Z,0.50
2022-10-21T23:49:02.828Z,0.30
2022-10-21T23:51:30.588Z,0.20
2022-10-21T23:53:58.163Z,0.20
2022-10-21T23:56:27.160Z,0.40
2022-10-21T23:58:54.722Z,0.30
